sensor_id;sensor_type;location;lat;lon;timestamp;P1;durP1;ratioP1;P2;durP2;ratioP2
80409;SDS011;69746;45.596;10.154;2023-07-24T00:01:01;6.38;;;4.70;;
80409;SDS011;69746;45.596;10.154;2023-07-24T00:03:27;6.30;;;4.30;;
80409;SDS011;69746;45.596;10.154;2023-07-24T00:05:53;6.57;;;4.80;;
80409;SDS011;69746;45.596;10.154;2023-07-24T00:08:26;7.40;;;4.60;;
80409;SDS011;69746;45.596;10.154;2023-07-24T00:10:52;6.03;;;4.78;;
80409;SDS011;69746;45.596;10.154;2023-07-24T00:13:17;6.32;;;4.72;;
80409;SDS011;69746;45.596;10.154;2023-07-24T00:15:43;6.05;;;4.68;;
80409;SDS011;69746;45.596;10.154;2023-07-24T00:18:10;5.93;;;4.50;;
80409;SDS011;69746;45.596;10.154;2023-07-24T00:20:36;6.13;;;4.78;;
80409;SDS011;69746;45.596;10.154;2023-07-24T00:23:02;5.47;;;4.32;;
80409;SDS011;69746;45.596;10.154;2023-07-24T00:25:28;6.35;;;4.85;;
80409;SDS011;69746;45.596;10.154;2023-07-24T00:27:54;5.90;;;4.65;;
80409;SDS011;69746;45.596;10.154;2023-07-24T00:30:20;6.10;;;4.70;;
80409;SDS011;69746;45.596;10.154;2023-07-24T00:32:46;6.32;;;4.30;;
80409;SDS011;69746;45.596;10.154;2023-07-24T00:35:12;5.93;;;4.55;;
80409;SDS011;69746;45.596;10.154;2023-07-24T00:37:38;5.78;;;4.45;;
80409;SDS011;69746;45.596;10.154;2023-07-24T00:40:04;5.82;;;4.43;;
80409;SDS011;69746;45.596;10.154;2023-07-24T00:42:30;5.53;;;4.40;;
80409;SDS011;69746;45.596;10.154;2023-07-24T00:44:56;5.80;;;4.30;;
80409;SDS011;69746;45.596;10.154;2023-07-24T00:47:22;6.75;;;5.18;;
80409;SDS011;69746;45.596;10.154;2023-07-24T00:49:48;5.65;;;4.63;;
80409;SDS011;69746;45.596;10.154;2023-07-24T00:52:15;5.82;;;4.43;;
80409;SDS011;69746;45.596;10.154;2023-07-24T00:54:41;6.68;;;4.93;;
80409;SDS011;69746;45.596;10.154;2023-07-24T00:57:10;7.40;;;5.28;;
80409;SDS011;69746;45.596;10.154;2023-07-24T00:59:36;6.07;;;4.60;;
80409;SDS011;69746;45.596;10.154;2023-07-24T01:02:02;6.05;;;4.65;;
80409;SDS011;69746;45.596;10.154;2023-07-24T01:04:28;6.60;;;5.20;;
80409;SDS011;69746;45.596;10.154;2023-07-24T01:06:56;6.07;;;4.75;;
80409;SDS011;69746;45.596;10.154;2023-07-24T01:09:23;5.25;;;4.13;;
80409;SDS011;69746;45.596;10.154;2023-07-24T01:11:55;6.72;;;5.43;;
80409;SDS011;69746;45.596;10.154;2023-07-24T01:14:27;5.85;;;4.60;;
80409;SDS011;69746;45.596;10.154;2023-07-24T01:17:02;6.72;;;5.32;;
80409;SDS011;69746;45.596;10.154;2023-07-24T01:19:37;5.80;;;4.40;;
80409;SDS011;69746;45.596;10.154;2023-07-24T01:25:14;7.10;;;5.13;;
80409;SDS011;69746;45.596;10.154;2023-07-24T01:27:45;5.95;;;4.82;;
80409;SDS011;69746;45.596;10.154;2023-07-24T01:30:11;6.30;;;4.63;;
80409;SDS011;69746;45.596;10.154;2023-07-24T01:32:38;6.20;;;4.35;;
80409;SDS011;69746;45.596;10.154;2023-07-24T01:35:04;6.72;;;5.00;;
80409;SDS011;69746;45.596;10.154;2023-07-24T01:37:30;5.88;;;4.70;;
80409;SDS011;69746;45.596;10.154;2023-07-24T01:39:57;5.60;;;4.68;;
80409;SDS011;69746;45.596;10.154;2023-07-24T01:42:24;5.95;;;4.55;;
80409;SDS011;69746;45.596;10.154;2023-07-24T01:44:52;5.82;;;4.47;;
80409;SDS011;69746;45.596;10.154;2023-07-24T01:47:18;5.93;;;4.72;;
80409;SDS011;69746;45.596;10.154;2023-07-24T01:49:44;6.10;;;4.70;;
80409;SDS011;69746;45.596;10.154;2023-07-24T01:52:10;5.97;;;4.70;;
80409;SDS011;69746;45.596;10.154;2023-07-24T01:54:36;6.38;;;4.93;;
80409;SDS011;69746;45.596;10.154;2023-07-24T01:57:02;5.75;;;4.60;;
80409;SDS011;69746;45.596;10.154;2023-07-24T01:59:28;6.28;;;4.32;;
80409;SDS011;69746;45.596;10.154;2023-07-24T02:01:54;5.90;;;4.65;;
80409;SDS011;69746;45.596;10.154;2023-07-24T02:04:19;5.63;;;4.38;;
80409;SDS011;69746;45.596;10.154;2023-07-24T02:06:48;5.82;;;4.43;;
80409;SDS011;69746;45.596;10.154;2023-07-24T02:09:15;6.18;;;4.63;;
80409;SDS011;69746;45.596;10.154;2023-07-24T02:11:42;5.68;;;4.32;;
80409;SDS011;69746;45.596;10.154;2023-07-24T02:14:08;5.25;;;4.38;;
80409;SDS011;69746;45.596;10.154;2023-07-24T02:16:35;5.43;;;4.20;;
80409;SDS011;69746;45.596;10.154;2023-07-24T02:19:01;5.43;;;4.28;;
80409;SDS011;69746;45.596;10.154;2023-07-24T02:21:27;5.72;;;4.60;;
80409;SDS011;69746;45.596;10.154;2023-07-24T02:23:56;5.63;;;4.15;;
80409;SDS011;69746;45.596;10.154;2023-07-24T02:26:21;5.20;;;3.97;;
80409;SDS011;69746;45.596;10.154;2023-07-24T02:28:47;6.38;;;4.38;;
80409;SDS011;69746;45.596;10.154;2023-07-24T02:31:13;5.68;;;4.65;;
80409;SDS011;69746;45.596;10.154;2023-07-24T02:33:39;5.95;;;4.55;;
80409;SDS011;69746;45.596;10.154;2023-07-24T02:36:05;6.00;;;4.50;;
80409;SDS011;69746;45.596;10.154;2023-07-24T02:38:30;6.68;;;4.50;;
80409;SDS011;69746;45.596;10.154;2023-07-24T02:40:59;6.07;;;4.50;;
80409;SDS011;69746;45.596;10.154;2023-07-24T02:43:25;5.25;;;4.00;;
80409;SDS011;69746;45.596;10.154;2023-07-24T02:45:50;6.18;;;4.38;;
80409;SDS011;69746;45.596;10.154;2023-07-24T02:48:16;5.47;;;4.47;;
80409;SDS011;69746;45.596;10.154;2023-07-24T02:50:42;5.35;;;4.20;;
80409;SDS011;69746;45.596;10.154;2023-07-24T02:53:08;6.40;;;4.55;;
80409;SDS011;69746;45.596;10.154;2023-07-24T02:55:34;6.47;;;4.60;;
80409;SDS011;69746;45.596;10.154;2023-07-24T02:58:00;5.20;;;4.13;;
80409;SDS011;69746;45.596;10.154;2023-07-24T03:00:28;6.00;;;4.53;;
80409;SDS011;69746;45.596;10.154;2023-07-24T03:02:54;6.20;;;4.60;;
80409;SDS011;69746;45.596;10.154;2023-07-24T03:05:20;6.10;;;4.40;;
80409;SDS011;69746;45.596;10.154;2023-07-24T03:07:46;6.10;;;4.35;;
80409;SDS011;69746;45.596;10.154;2023-07-24T03:10:11;5.90;;;4.20;;
80409;SDS011;69746;45.596;10.154;2023-07-24T03:12:37;5.97;;;4.15;;
80409;SDS011;69746;45.596;10.154;2023-07-24T03:15:03;5.75;;;4.50;;
80409;SDS011;69746;45.596;10.154;2023-07-24T03:17:29;5.35;;;4.30;;
80409;SDS011;69746;45.596;10.154;2023-07-24T03:19:55;4.85;;;3.83;;
80409;SDS011;69746;45.596;10.154;2023-07-24T03:22:23;5.80;;;4.38;;
80409;SDS011;69746;45.596;10.154;2023-07-24T03:24:49;6.22;;;4.35;;
80409;SDS011;69746;45.596;10.154;2023-07-24T03:27:15;5.70;;;4.53;;
80409;SDS011;69746;45.596;10.154;2023-07-24T03:29:41;5.15;;;3.88;;
80409;SDS011;69746;45.596;10.154;2023-07-24T03:32:07;6.03;;;4.50;;
80409;SDS011;69746;45.596;10.154;2023-07-24T03:34:36;5.82;;;4.45;;
80409;SDS011;69746;45.596;10.154;2023-07-24T03:37:01;5.75;;;4.13;;
80409;SDS011;69746;45.596;10.154;2023-07-24T03:39:27;6.38;;;4.28;;
80409;SDS011;69746;45.596;10.154;2023-07-24T03:41:53;5.63;;;4.25;;
80409;SDS011;69746;45.596;10.154;2023-07-24T03:44:19;5.35;;;4.10;;
80409;SDS011;69746;45.596;10.154;2023-07-24T03:46:44;5.43;;;4.18;;
80409;SDS011;69746;45.596;10.154;2023-07-24T03:49:10;5.85;;;4.07;;
80409;SDS011;69746;45.596;10.154;2023-07-24T03:51:36;5.55;;;4.03;;
80409;SDS011;69746;45.596;10.154;2023-07-24T03:54:02;5.32;;;4.18;;
80409;SDS011;69746;45.596;10.154;2023-07-24T03:56:31;5.63;;;3.95;;
80409;SDS011;69746;45.596;10.154;2023-07-24T03:58:57;5.72;;;4.00;;
80409;SDS011;69746;45.596;10.154;2023-07-24T04:01:23;5.05;;;4.20;;
80409;SDS011;69746;45.596;10.154;2023-07-24T04:03:51;6.05;;;4.15;;
80409;SDS011;69746;45.596;10.154;2023-07-24T04:06:18;5.78;;;4.40;;
80409;SDS011;69746;45.596;10.154;2023-07-24T04:08:43;11.48;;;7.78;;
80409;SDS011;69746;45.596;10.154;2023-07-24T04:11:09;17.00;;;9.85;;
80409;SDS011;69746;45.596;10.154;2023-07-24T04:13:35;15.55;;;9.85;;
80409;SDS011;69746;45.596;10.154;2023-07-24T04:16:01;16.92;;;10.57;;
80409;SDS011;69746;45.596;10.154;2023-07-24T04:18:27;18.17;;;10.82;;
80409;SDS011;69746;45.596;10.154;2023-07-24T04:20:56;15.70;;;9.63;;
80409;SDS011;69746;45.596;10.154;2023-07-24T04:23:22;17.63;;;10.30;;
80409;SDS011;69746;45.596;10.154;2023-07-24T04:25:51;15.40;;;10.05;;
80409;SDS011;69746;45.596;10.154;2023-07-24T04:28:16;15.18;;;9.45;;
80409;SDS011;69746;45.596;10.154;2023-07-24T04:30:42;14.27;;;9.68;;
80409;SDS011;69746;45.596;10.154;2023-07-24T04:33:08;14.90;;;9.32;;
80409;SDS011;69746;45.596;10.154;2023-07-24T04:35:34;16.75;;;10.57;;
80409;SDS011;69746;45.596;10.154;2023-07-24T04:37:59;14.00;;;9.98;;
80409;SDS011;69746;45.596;10.154;2023-07-24T04:40:25;18.67;;;10.13;;
80409;SDS011;69746;45.596;10.154;2023-07-24T04:42:51;14.48;;;8.98;;
80409;SDS011;69746;45.596;10.154;2023-07-24T04:45:16;16.83;;;9.65;;
80409;SDS011;69746;45.596;10.154;2023-07-24T04:47:42;15.98;;;9.23;;
80409;SDS011;69746;45.596;10.154;2023-07-24T04:50:08;14.88;;;9.50;;
80409;SDS011;69746;45.596;10.154;2023-07-24T04:52:34;13.95;;;9.63;;
80409;SDS011;69746;45.596;10.154;2023-07-24T04:55:00;15.13;;;9.82;;
80409;SDS011;69746;45.596;10.154;2023-07-24T04:57:25;16.23;;;10.32;;
80409;SDS011;69746;45.596;10.154;2023-07-24T04:59:51;17.05;;;9.38;;
80409;SDS011;69746;45.596;10.154;2023-07-24T05:02:17;14.55;;;8.68;;
80409;SDS011;69746;45.596;10.154;2023-07-24T05:04:43;15.73;;;8.85;;
80409;SDS011;69746;45.596;10.154;2023-07-24T05:07:08;16.17;;;9.93;;
80409;SDS011;69746;45.596;10.154;2023-07-24T05:09:34;19.02;;;10.77;;
80409;SDS011;69746;45.596;10.154;2023-07-24T05:11:59;19.40;;;10.70;;
80409;SDS011;69746;45.596;10.154;2023-07-24T05:14:25;16.13;;;10.30;;
80409;SDS011;69746;45.596;10.154;2023-07-24T05:16:51;17.90;;;9.90;;
80409;SDS011;69746;45.596;10.154;2023-07-24T05:19:16;16.20;;;9.65;;
80409;SDS011;69746;45.596;10.154;2023-07-24T05:21:42;14.85;;;9.40;;
80409;SDS011;69746;45.596;10.154;2023-07-24T05:24:08;14.77;;;9.27;;
80409;SDS011;69746;45.596;10.154;2023-07-24T05:26:33;16.05;;;8.48;;
80409;SDS011;69746;45.596;10.154;2023-07-24T05:28:59;14.73;;;8.00;;
80409;SDS011;69746;45.596;10.154;2023-07-24T05:31:25;14.45;;;8.50;;
80409;SDS011;69746;45.596;10.154;2023-07-24T05:33:50;14.68;;;8.43;;
80409;SDS011;69746;45.596;10.154;2023-07-24T05:36:16;14.27;;;8.82;;
80409;SDS011;69746;45.596;10.154;2023-07-24T05:38:41;12.40;;;8.27;;
80409;SDS011;69746;45.596;10.154;2023-07-24T05:41:07;15.63;;;8.88;;
80409;SDS011;69746;45.596;10.154;2023-07-24T05:43:33;15.45;;;8.55;;
80409;SDS011;69746;45.596;10.154;2023-07-24T05:45:58;12.75;;;7.38;;
80409;SDS011;69746;45.596;10.154;2023-07-24T05:48:24;16.77;;;9.25;;
80409;SDS011;69746;45.596;10.154;2023-07-24T05:50:50;14.02;;;8.15;;
80409;SDS011;69746;45.596;10.154;2023-07-24T05:53:16;14.45;;;8.73;;
80409;SDS011;69746;45.596;10.154;2023-07-24T05:55:55;14.95;;;8.38;;
80409;SDS011;69746;45.596;10.154;2023-07-24T05:58:25;14.50;;;8.07;;
80409;SDS011;69746;45.596;10.154;2023-07-24T06:00:51;13.55;;;8.90;;
80409;SDS011;69746;45.596;10.154;2023-07-24T06:03:19;15.57;;;8.80;;
80409;SDS011;69746;45.596;10.154;2023-07-24T06:08:19;16.63;;;9.00;;
80409;SDS011;69746;45.596;10.154;2023-07-24T06:10:48;13.02;;;8.38;;
80409;SDS011;69746;45.596;10.154;2023-07-24T06:13:16;15.07;;;8.85;;
80409;SDS011;69746;45.596;10.154;2023-07-24T06:18:09;14.70;;;8.48;;
80409;SDS011;69746;45.596;10.154;2023-07-24T06:20:36;14.35;;;8.40;;
80409;SDS011;69746;45.596;10.154;2023-07-24T06:23:02;12.50;;;8.75;;
80409;SDS011;69746;45.596;10.154;2023-07-24T06:27:57;14.07;;;8.77;;
80409;SDS011;69746;45.596;10.154;2023-07-24T06:30:23;14.82;;;8.82;;
80409;SDS011;69746;45.596;10.154;2023-07-24T06:32:50;12.60;;;8.40;;
80409;SDS011;69746;45.596;10.154;2023-07-24T06:35:15;13.45;;;8.35;;
80409;SDS011;69746;45.596;10.154;2023-07-24T06:37:41;14.13;;;9.10;;
80409;SDS011;69746;45.596;10.154;2023-07-24T06:40:10;14.50;;;9.38;;
80409;SDS011;69746;45.596;10.154;2023-07-24T06:42:36;13.52;;;8.93;;
80409;SDS011;69746;45.596;10.154;2023-07-24T06:45:03;14.57;;;8.70;;
80409;SDS011;69746;45.596;10.154;2023-07-24T06:47:29;13.60;;;9.02;;
80409;SDS011;69746;45.596;10.154;2023-07-24T06:49:57;12.93;;;8.40;;
80409;SDS011;69746;45.596;10.154;2023-07-24T06:52:25;15.15;;;8.95;;
80409;SDS011;69746;45.596;10.154;2023-07-24T06:57:16;11.88;;;8.07;;
80409;SDS011;69746;45.596;10.154;2023-07-24T06:59:45;12.45;;;7.82;;
80409;SDS011;69746;45.596;10.154;2023-07-24T07:02:11;13.20;;;8.15;;
80409;SDS011;69746;45.596;10.154;2023-07-24T07:04:40;14.27;;;8.88;;
80409;SDS011;69746;45.596;10.154;2023-07-24T07:07:06;12.43;;;8.52;;
80409;SDS011;69746;45.596;10.154;2023-07-24T07:09:32;12.38;;;8.57;;
80409;SDS011;69746;45.596;10.154;2023-07-24T07:11:57;14.50;;;8.32;;
80409;SDS011;69746;45.596;10.154;2023-07-24T07:14:24;10.93;;;7.53;;
80409;SDS011;69746;45.596;10.154;2023-07-24T07:16:50;10.70;;;7.85;;
80409;SDS011;69746;45.596;10.154;2023-07-24T07:19:15;12.60;;;8.35;;
80409;SDS011;69746;45.596;10.154;2023-07-24T07:21:41;14.23;;;8.45;;
80409;SDS011;69746;45.596;10.154;2023-07-24T07:24:07;12.07;;;8.43;;
80409;SDS011;69746;45.596;10.154;2023-07-24T07:26:33;13.48;;;8.95;;
80409;SDS011;69746;45.596;10.154;2023-07-24T07:28:59;10.50;;;7.68;;
80409;SDS011;69746;45.596;10.154;2023-07-24T07:31:25;11.80;;;8.00;;
80409;SDS011;69746;45.596;10.154;2023-07-24T07:33:53;13.27;;;8.73;;
80409;SDS011;69746;45.596;10.154;2023-07-24T07:36:19;13.00;;;8.85;;
80409;SDS011;69746;45.596;10.154;2023-07-24T07:38:48;14.88;;;8.77;;
80409;SDS011;69746;45.596;10.154;2023-07-24T07:41:14;13.00;;;8.38;;
80409;SDS011;69746;45.596;10.154;2023-07-24T07:43:43;13.30;;;8.48;;
80409;SDS011;69746;45.596;10.154;2023-07-24T07:46:09;13.40;;;8.25;;
80409;SDS011;69746;45.596;10.154;2023-07-24T07:48:34;13.65;;;8.15;;
80409;SDS011;69746;45.596;10.154;2023-07-24T07:51:01;12.40;;;8.18;;
80409;SDS011;69746;45.596;10.154;2023-07-24T07:53:30;11.95;;;8.35;;
80409;SDS011;69746;45.596;10.154;2023-07-24T07:55:57;11.32;;;8.05;;
80409;SDS011;69746;45.596;10.154;2023-07-24T07:58:25;12.43;;;8.27;;
80409;SDS011;69746;45.596;10.154;2023-07-24T08:00:54;11.82;;;8.07;;
80409;SDS011;69746;45.596;10.154;2023-07-24T08:03:21;13.13;;;8.23;;
80409;SDS011;69746;45.596;10.154;2023-07-24T08:05:47;11.40;;;7.82;;
80409;SDS011;69746;45.596;10.154;2023-07-24T08:08:13;12.38;;;8.45;;
80409;SDS011;69746;45.596;10.154;2023-07-24T08:10:39;12.45;;;7.68;;
80409;SDS011;69746;45.596;10.154;2023-07-24T08:13:05;11.52;;;7.78;;
80409;SDS011;69746;45.596;10.154;2023-07-24T08:15:36;11.45;;;7.53;;
80409;SDS011;69746;45.596;10.154;2023-07-24T08:18:05;10.82;;;7.95;;
80409;SDS011;69746;45.596;10.154;2023-07-24T08:20:37;11.13;;;8.00;;
80409;SDS011;69746;45.596;10.154;2023-07-24T08:23:07;14.52;;;8.98;;
80409;SDS011;69746;45.596;10.154;2023-07-24T08:25:33;11.45;;;8.32;;
80409;SDS011;69746;45.596;10.154;2023-07-24T08:27:59;12.43;;;8.13;;
80409;SDS011;69746;45.596;10.154;2023-07-24T08:30:25;11.70;;;7.97;;
80409;SDS011;69746;45.596;10.154;2023-07-24T08:32:50;11.43;;;7.80;;
80409;SDS011;69746;45.596;10.154;2023-07-24T08:35:16;12.30;;;8.30;;
80409;SDS011;69746;45.596;10.154;2023-07-24T08:37:43;11.40;;;7.78;;
80409;SDS011;69746;45.596;10.154;2023-07-24T08:40:10;11.65;;;8.05;;
80409;SDS011;69746;45.596;10.154;2023-07-24T08:42:39;11.50;;;7.60;;
80409;SDS011;69746;45.596;10.154;2023-07-24T08:45:11;11.10;;;8.15;;
80409;SDS011;69746;45.596;10.154;2023-07-24T08:47:42;11.25;;;8.02;;
80409;SDS011;69746;45.596;10.154;2023-07-24T08:50:12;10.27;;;7.15;;
80409;SDS011;69746;45.596;10.154;2023-07-24T08:52:40;11.95;;;8.32;;
80409;SDS011;69746;45.596;10.154;2023-07-24T08:55:07;11.93;;;7.30;;
80409;SDS011;69746;45.596;10.154;2023-07-24T08:57:35;12.75;;;8.27;;
80409;SDS011;69746;45.596;10.154;2023-07-24T09:00:01;10.20;;;7.35;;
80409;SDS011;69746;45.596;10.154;2023-07-24T09:02:31;10.45;;;7.47;;
80409;SDS011;69746;45.596;10.154;2023-07-24T09:04:58;11.60;;;7.82;;
80409;SDS011;69746;45.596;10.154;2023-07-24T09:07:24;11.15;;;7.65;;
80409;SDS011;69746;45.596;10.154;2023-07-24T09:09:49;12.18;;;7.90;;
80409;SDS011;69746;45.596;10.154;2023-07-24T09:12:18;11.02;;;7.47;;
80409;SDS011;69746;45.596;10.154;2023-07-24T09:14:44;10.45;;;7.85;;
80409;SDS011;69746;45.596;10.154;2023-07-24T09:17:10;11.70;;;7.22;;
80409;SDS011;69746;45.596;10.154;2023-07-24T09:19:37;11.77;;;8.43;;
80409;SDS011;69746;45.596;10.154;2023-07-24T09:24:56;10.57;;;7.30;;
80409;SDS011;69746;45.596;10.154;2023-07-24T09:27:29;10.20;;;7.50;;
80409;SDS011;69746;45.596;10.154;2023-07-24T09:29:58;9.55;;;6.97;;
80409;SDS011;69746;45.596;10.154;2023-07-24T09:32:25;11.77;;;7.43;;
80409;SDS011;69746;45.596;10.154;2023-07-24T09:34:52;10.57;;;7.60;;
80409;SDS011;69746;45.596;10.154;2023-07-24T09:37:24;10.52;;;7.65;;
80409;SDS011;69746;45.596;10.154;2023-07-24T09:39:56;11.43;;;7.78;;
80409;SDS011;69746;45.596;10.154;2023-07-24T09:42:31;12.30;;;7.90;;
80409;SDS011;69746;45.596;10.154;2023-07-24T09:45:01;9.80;;;6.78;;
80409;SDS011;69746;45.596;10.154;2023-07-24T09:47:29;11.13;;;7.45;;
80409;SDS011;69746;45.596;10.154;2023-07-24T09:49:55;9.88;;;7.00;;
80409;SDS011;69746;45.596;10.154;2023-07-24T09:52:22;10.43;;;7.35;;
80409;SDS011;69746;45.596;10.154;2023-07-24T09:54:59;9.98;;;7.10;;
80409;SDS011;69746;45.596;10.154;2023-07-24T09:57:30;11.13;;;7.53;;
80409;SDS011;69746;45.596;10.154;2023-07-24T09:59:57;9.25;;;6.85;;
80409;SDS011;69746;45.596;10.154;2023-07-24T10:02:24;11.10;;;7.47;;
80409;SDS011;69746;45.596;10.154;2023-07-24T10:04:51;10.55;;;7.75;;
80409;SDS011;69746;45.596;10.154;2023-07-24T10:07:18;10.27;;;7.10;;
80409;SDS011;69746;45.596;10.154;2023-07-24T10:09:48;11.45;;;7.60;;
80409;SDS011;69746;45.596;10.154;2023-07-24T10:12:17;9.65;;;7.40;;
80409;SDS011;69746;45.596;10.154;2023-07-24T10:14:45;10.27;;;7.47;;
80409;SDS011;69746;45.596;10.154;2023-07-24T10:17:12;11.30;;;7.53;;
80409;SDS011;69746;45.596;10.154;2023-07-24T10:19:41;9.93;;;7.40;;
80409;SDS011;69746;45.596;10.154;2023-07-24T10:22:20;8.52;;;6.65;;
80409;SDS011;69746;45.596;10.154;2023-07-24T10:24:46;10.55;;;7.30;;
80409;SDS011;69746;45.596;10.154;2023-07-24T10:27:13;11.15;;;7.63;;
80409;SDS011;69746;45.596;10.154;2023-07-24T10:29:39;10.27;;;7.53;;
80409;SDS011;69746;45.596;10.154;2023-07-24T10:32:16;9.65;;;6.40;;
80409;SDS011;69746;45.596;10.154;2023-07-24T10:34:44;9.27;;;6.88;;
80409;SDS011;69746;45.596;10.154;2023-07-24T10:37:10;9.63;;;7.25;;
80409;SDS011;69746;45.596;10.154;2023-07-24T10:39:39;10.35;;;7.53;;
80409;SDS011;69746;45.596;10.154;2023-07-24T10:42:09;9.65;;;7.47;;
80409;SDS011;69746;45.596;10.154;2023-07-24T10:44:36;10.07;;;7.35;;
80409;SDS011;69746;45.596;10.154;2023-07-24T10:47:03;8.95;;;6.90;;
80409;SDS011;69746;45.596;10.154;2023-07-24T10:49:30;9.38;;;6.82;;
80409;SDS011;69746;45.596;10.154;2023-07-24T10:51:56;9.10;;;6.68;;
80409;SDS011;69746;45.596;10.154;2023-07-24T10:54:24;9.32;;;6.90;;
80409;SDS011;69746;45.596;10.154;2023-07-24T10:56:50;8.68;;;6.53;;
80409;SDS011;69746;45.596;10.154;2023-07-24T10:59:34;9.82;;;7.00;;
80409;SDS011;69746;45.596;10.154;2023-07-24T11:02:04;11.95;;;7.43;;
80409;SDS011;69746;45.596;10.154;2023-07-24T11:04:30;9.90;;;7.18;;
80409;SDS011;69746;45.596;10.154;2023-07-24T11:06:56;9.63;;;7.10;;
80409;SDS011;69746;45.596;10.154;2023-07-24T11:09:22;9.00;;;6.85;;
80409;SDS011;69746;45.596;10.154;2023-07-24T11:11:59;8.88;;;6.80;;
80409;SDS011;69746;45.596;10.154;2023-07-24T11:14:25;9.45;;;7.00;;
80409;SDS011;69746;45.596;10.154;2023-07-24T11:16:50;9.65;;;6.95;;
80409;SDS011;69746;45.596;10.154;2023-07-24T11:19:24;9.70;;;7.10;;
80409;SDS011;69746;45.596;10.154;2023-07-24T11:24:17;9.70;;;7.05;;
80409;SDS011;69746;45.596;10.154;2023-07-24T11:26:43;10.05;;;6.65;;
80409;SDS011;69746;45.596;10.154;2023-07-24T11:29:12;8.57;;;6.35;;
80409;SDS011;69746;45.596;10.154;2023-07-24T11:31:38;9.90;;;6.60;;
80409;SDS011;69746;45.596;10.154;2023-07-24T11:34:05;9.65;;;6.75;;
80409;SDS011;69746;45.596;10.154;2023-07-24T11:36:31;9.20;;;6.70;;
80409;SDS011;69746;45.596;10.154;2023-07-24T11:38:58;9.90;;;6.90;;
80409;SDS011;69746;45.596;10.154;2023-07-24T11:41:25;8.82;;;6.47;;
80409;SDS011;69746;45.596;10.154;2023-07-24T11:43:51;9.40;;;6.68;;
80409;SDS011;69746;45.596;10.154;2023-07-24T11:46:24;8.77;;;6.43;;
80409;SDS011;69746;45.596;10.154;2023-07-24T11:48:52;9.75;;;6.75;;
80409;SDS011;69746;45.596;10.154;2023-07-24T11:51:21;9.57;;;6.93;;
80409;SDS011;69746;45.596;10.154;2023-07-24T11:53:49;9.63;;;7.03;;
80409;SDS011;69746;45.596;10.154;2023-07-24T11:56:17;10.07;;;7.00;;
80409;SDS011;69746;45.596;10.154;2023-07-24T11:58:45;8.43;;;6.32;;
80409;SDS011;69746;45.596;10.154;2023-07-24T12:01:12;8.73;;;6.68;;
80409;SDS011;69746;45.596;10.154;2023-07-24T12:03:39;9.52;;;6.75;;
80409;SDS011;69746;45.596;10.154;2023-07-24T12:06:13;9.50;;;6.32;;
80409;SDS011;69746;45.596;10.154;2023-07-24T12:08:41;9.48;;;6.95;;
80409;SDS011;69746;45.596;10.154;2023-07-24T12:11:16;9.02;;;6.57;;
80409;SDS011;69746;45.596;10.154;2023-07-24T12:13:43;9.38;;;6.78;;
80409;SDS011;69746;45.596;10.154;2023-07-24T12:16:09;9.30;;;6.70;;
80409;SDS011;69746;45.596;10.154;2023-07-24T12:18:35;9.95;;;7.00;;
80409;SDS011;69746;45.596;10.154;2023-07-24T12:21:01;9.48;;;6.75;;
80409;SDS011;69746;45.596;10.154;2023-07-24T12:23:27;8.70;;;6.32;;
80409;SDS011;69746;45.596;10.154;2023-07-24T12:25:53;8.00;;;6.20;;
80409;SDS011;69746;45.596;10.154;2023-07-24T12:28:19;9.70;;;6.85;;
80409;SDS011;69746;45.596;10.154;2023-07-24T12:30:48;9.10;;;6.47;;
80409;SDS011;69746;45.596;10.154;2023-07-24T12:33:14;9.57;;;6.90;;
80409;SDS011;69746;45.596;10.154;2023-07-24T12:35:39;9.73;;;7.18;;
80409;SDS011;69746;45.596;10.154;2023-07-24T12:38:06;8.82;;;6.30;;
80409;SDS011;69746;45.596;10.154;2023-07-24T12:40:34;9.23;;;6.32;;
80409;SDS011;69746;45.596;10.154;2023-07-24T12:43:00;8.95;;;6.97;;
80409;SDS011;69746;45.596;10.154;2023-07-24T12:45:25;9.15;;;6.78;;
80409;SDS011;69746;45.596;10.154;2023-07-24T13:10:02;9.13;;;7.35;;
80409;SDS011;69746;45.596;10.154;2023-07-24T13:12:29;9.70;;;6.68;;
80409;SDS011;69746;45.596;10.154;2023-07-24T13:14:54;8.02;;;6.28;;
80409;SDS011;69746;45.596;10.154;2023-07-24T13:17:21;9.40;;;6.90;;
80409;SDS011;69746;45.596;10.154;2023-07-24T13:19:48;8.80;;;6.45;;
80409;SDS011;69746;45.596;10.154;2023-07-24T13:22:16;8.43;;;6.40;;
80409;SDS011;69746;45.596;10.154;2023-07-24T13:24:42;7.88;;;6.05;;
80409;SDS011;69746;45.596;10.154;2023-07-24T13:27:08;9.48;;;6.22;;
80409;SDS011;69746;45.596;10.154;2023-07-24T13:29:34;9.00;;;6.60;;
80409;SDS011;69746;45.596;10.154;2023-07-24T13:32:00;9.18;;;6.60;;
80409;SDS011;69746;45.596;10.154;2023-07-24T13:34:26;9.05;;;6.38;;
80409;SDS011;69746;45.596;10.154;2023-07-24T13:36:52;9.95;;;6.80;;
80409;SDS011;69746;45.596;10.154;2023-07-24T13:39:18;8.30;;;6.38;;
80409;SDS011;69746;45.596;10.154;2023-07-24T13:41:44;9.10;;;6.22;;
80409;SDS011;69746;45.596;10.154;2023-07-24T13:44:10;8.32;;;6.10;;
80409;SDS011;69746;45.596;10.154;2023-07-24T13:46:36;8.48;;;6.28;;
80409;SDS011;69746;45.596;10.154;2023-07-24T13:49:02;8.80;;;6.20;;
80409;SDS011;69746;45.596;10.154;2023-07-24T13:51:30;9.70;;;6.20;;
80409;SDS011;69746;45.596;10.154;2023-07-24T13:53:55;8.73;;;6.38;;
80409;SDS011;69746;45.596;10.154;2023-07-24T13:56:21;8.88;;;6.50;;
80409;SDS011;69746;45.596;10.154;2023-07-24T13:58:49;8.70;;;6.13;;
80409;SDS011;69746;45.596;10.154;2023-07-24T14:01:17;8.05;;;6.03;;
80409;SDS011;69746;45.596;10.154;2023-07-24T14:03:43;8.02;;;5.97;;
80409;SDS011;69746;45.596;10.154;2023-07-24T14:06:09;8.82;;;6.53;;
80409;SDS011;69746;45.596;10.154;2023-07-24T14:08:35;9.38;;;6.95;;
80409;SDS011;69746;45.596;10.154;2023-07-24T14:11:03;8.32;;;6.25;;
80409;SDS011;69746;45.596;10.154;2023-07-24T14:13:29;8.02;;;5.82;;
80409;SDS011;69746;45.596;10.154;2023-07-24T14:15:55;8.93;;;5.93;;
80409;SDS011;69746;45.596;10.154;2023-07-24T14:18:20;9.23;;;6.43;;
80409;SDS011;69746;45.596;10.154;2023-07-24T14:20:46;8.63;;;6.45;;
80409;SDS011;69746;45.596;10.154;2023-07-24T14:23:13;8.20;;;6.03;;
80409;SDS011;69746;45.596;10.154;2023-07-24T14:25:38;7.72;;;6.00;;
80409;SDS011;69746;45.596;10.154;2023-07-24T14:28:04;8.30;;;6.43;;
80409;SDS011;69746;45.596;10.154;2023-07-24T14:30:33;8.18;;;6.00;;
80409;SDS011;69746;45.596;10.154;2023-07-24T14:32:59;8.70;;;6.15;;
80409;SDS011;69746;45.596;10.154;2023-07-24T14:35:25;7.85;;;6.20;;
80409;SDS011;69746;45.596;10.154;2023-07-24T14:37:51;8.85;;;5.95;;
80409;SDS011;69746;45.596;10.154;2023-07-24T14:40:17;7.60;;;5.82;;
80409;SDS011;69746;45.596;10.154;2023-07-24T14:42:44;7.90;;;6.10;;
80409;SDS011;69746;45.596;10.154;2023-07-24T14:45:10;8.95;;;5.78;;
80409;SDS011;69746;45.596;10.154;2023-07-24T14:47:38;6.90;;;5.20;;
80409;SDS011;69746;45.596;10.154;2023-07-24T14:50:05;9.05;;;5.97;;
80409;SDS011;69746;45.596;10.154;2023-07-24T14:52:31;7.95;;;6.15;;
80409;SDS011;69746;45.596;10.154;2023-07-24T14:54:57;7.57;;;5.72;;
80409;SDS011;69746;45.596;10.154;2023-07-24T14:57:26;8.57;;;5.90;;
80409;SDS011;69746;45.596;10.154;2023-07-24T14:59:52;9.07;;;6.57;;
80409;SDS011;69746;45.596;10.154;2023-07-24T15:02:18;8.43;;;5.65;;
80409;SDS011;69746;45.596;10.154;2023-07-24T15:04:44;8.35;;;5.60;;
80409;SDS011;69746;45.596;10.154;2023-07-24T15:07:11;8.52;;;6.50;;